Time;durP1;ratioP1;P1;durP2;ratioP2;P2;SDS_P1;SDS_P2;PMS_P1;PMS_P2;Temp;Humidity;BMP_temperature;BMP_pressure;BME280_temperature;BME280_humidity;BME280_pressure;Samples;Min_cycle;Max_cycle;Signal;HPM_P1;HPM_P2
2023/01/10 00:00:38;;;;;;;9.33;8.47;;;;;;;5.62;85.53;100784.88;5113936;28;20260;-71
2023/01/10 00:03:08;;;;;;;16.17;8.87;;;;;;;5.61;85.75;100791.16;5113860;28;20196;-71
2023/01/10 00:05:36;;;;;;;18.87;9.73;;;;;;;5.53;85.83;100794.19;5113881;28;20203;-71
2023/01/10 00:08:04;;;;;;;18.00;10.50;;;;;;;5.57;85.78;100796.69;5114027;28;20247;-71
2023/01/10 00:10:32;;;;;;;13.50;9.43;;;;;;;5.60;85.69;100808.00;5113680;28;20287;-71
2023/01/10 00:15:44;;;;;;;20.97;10.57;;;;;;;5.55;85.59;100818.00;5114759;28;20193;-71
2023/01/10 00:18:10;;;;;;;13.23;10.57;;;;;;;5.58;85.50;100831.16;5114096;28;20721;-71
2023/01/10 00:20:36;;;;;;;23.30;11.17;;;;;;;5.57;85.58;100826.78;5113567;28;20213;-71
2023/01/10 00:23:03;;;;;;;16.00;11.20;;;;;;;5.54;85.64;100832.25;5113696;28;20216;-71
2023/01/10 00:25:32;;;;;;;14.90;10.37;;;;;;;5.54;85.31;100837.56;5113637;28;20181;-71
2023/01/10 00:28:18;;;;;;;15.03;10.43;;;;;;;5.45;85.57;100841.50;5113555;28;20240;-71
2023/01/10 00:31:08;;;;;;;17.17;8.87;;;;;;;5.46;85.69;100850.34;5114098;28;20569;-71
2023/01/10 00:33:35;;;;;;;14.33;9.57;;;;;;;5.49;84.99;100856.38;5113867;28;20201;-71
2023/01/10 00:36:06;;;;;;;16.80;9.77;;;;;;;5.51;85.61;100862.47;5114114;28;20264;-71
2023/01/10 00:38:35;;;;;;;11.97;10.33;;;;;;;5.50;85.39;100866.06;5113466;28;20201;-71
2023/01/10 00:43:55;;;;;;;16.77;9.07;;;;;;;5.54;85.25;100866.78;5114063;28;20579;-71
2023/01/10 00:43:58;;;;;;;11.60;8.90;;;;;;;5.53;85.29;100871.22;5115305;28;20177;-71
2023/01/10 00:46:25;;;;;;;19.57;10.60;;;;;;;5.52;85.16;100866.84;5117538;28;20600;-70
2023/01/10 00:48:52;;;;;;;15.30;10.13;;;;;;;5.52;85.04;100868.66;5117743;28;20196;-70
2023/01/10 00:51:19;;;;;;;26.20;9.70;;;;;;;5.52;84.74;100880.13;5117391;28;20215;-71
2023/01/10 00:53:45;;;;;;;23.50;10.33;;;;;;;5.47;84.85;100883.94;5117438;28;20234;-71
2023/01/10 00:56:11;;;;;;;14.43;8.57;;;;;;;5.47;84.94;100890.09;5117299;28;20609;-70
2023/01/10 00:58:38;;;;;;;15.33;8.50;;;;;;;5.40;85.18;100901.97;5117595;28;20208;-71
2023/01/10 01:01:04;;;;;;;14.57;9.20;;;;;;;5.36;85.06;100908.34;5117213;28;20268;-71
2023/01/10 01:03:31;;;;;;;17.30;8.40;;;;;;;5.37;85.48;100911.88;5117227;28;20242;-71
2023/01/10 01:06:04;;;;;;;18.17;8.37;;;;;;;5.26;85.44;100918.53;5117729;28;20276;-71
2023/01/10 01:08:31;;;;;;;19.90;9.03;;;;;;;5.22;85.53;100916.97;5117080;28;20210;-71
2023/01/10 01:10:57;;;;;;;9.83;8.43;;;;;;;5.26;85.43;100930.97;5116986;28;20240;-71
2023/01/10 01:13:24;;;;;;;16.23;7.90;;;;;;;5.26;85.46;100930.97;5117578;28;20272;-71
2023/01/10 01:15:51;;;;;;;8.93;8.10;;;;;;;5.31;85.49;100937.75;5116964;28;20268;-71
2023/01/10 01:18:19;;;;;;;14.47;9.60;;;;;;;5.26;85.65;100953.06;5116919;28;20209;-71
2023/01/10 01:20:47;;;;;;;14.97;9.33;;;;;;;5.28;85.65;100947.69;5116864;28;20193;-71
2023/01/10 01:23:14;;;;;;;17.13;8.30;;;;;;;5.32;85.05;100960.75;5098627;28;20608;-71
2023/01/10 01:25:41;;;;;;;14.87;8.03;;;;;;;5.30;85.49;100972.38;5116788;28;20686;-71
2023/01/10 01:28:10;;;;;;;18.33;7.87;;;;;;;5.34;85.28;100973.97;5116743;28;20653;-71
2023/01/10 01:30:37;;;;;;;10.37;7.90;;;;;;;5.39;85.34;100971.06;5116634;28;20237;-71
2023/01/10 01:33:04;;;;;;;21.77;7.47;;;;;;;5.43;84.69;100977.97;5117238;28;20281;-71
2023/01/10 01:35:32;;;;;;;7.57;6.77;;;;;;;5.41;85.13;100982.50;5117169;28;20178;-71
2023/01/10 01:37:58;;;;;;;17.67;6.87;;;;;;;5.44;84.93;100985.88;5116525;28;20201;-71
2023/01/10 01:40:25;;;;;;;8.93;6.07;;;;;;;5.44;84.76;100988.53;5116456;28;20758;-71
2023/01/10 01:42:54;;;;;;;16.73;6.23;;;;;;;5.51;84.30;100987.31;5116434;28;20212;-71
2023/01/10 01:45:21;;;;;;;13.23;7.17;;;;;;;5.53;84.09;100989.88;5116385;28;20188;-71
2023/01/10 01:47:56;;;;;;;19.20;6.80;;;;;;;5.52;84.14;100991.69;5116350;28;20204;-71
2023/01/10 01:50:31;;;;;;;10.90;6.50;;;;;;;5.56;84.28;100997.75;5116332;28;20201;-71
2023/01/10 01:53:00;;;;;;;10.27;6.00;;;;;;;5.56;83.95;101005.72;5116340;28;20264;-71
2023/01/10 01:55:30;;;;;;;7.43;6.73;;;;;;;5.60;83.79;101006.41;5097829;28;20622;-71
2023/01/10 01:58:02;;;;;;;12.83;6.20;;;;;;;5.58;83.83;101006.50;5116209;28;20205;-70
2023/01/10 02:00:28;;;;;;;11.57;5.50;;;;;;;5.63;83.65;101015.13;5116500;28;20184;-71
2023/01/10 02:02:59;;;;;;;10.87;5.93;;;;;;;5.62;83.37;101023.16;5116646;28;20185;-71
2023/01/10 02:05:31;;;;;;;7.73;6.40;;;;;;;5.62;82.98;101021.34;5116667;28;20182;-71
2023/01/10 02:08:01;;;;;;;12.77;6.53;;;;;;;5.65;83.05;101018.56;5115988;28;20300;-70
2023/01/10 02:10:37;;;;;;;10.93;5.90;;;;;;;5.64;83.13;101019.47;5115942;28;20303;-70
2023/01/10 02:13:06;;;;;;;17.50;7.03;;;;;;;5.73;82.46;101031.50;5116539;28;20578;-71
2023/01/10 02:15:32;;;;;;;13.43;7.03;;;;;;;5.68;82.70;101028.19;5115847;28;20355;-71
2023/01/10 02:18:01;;;;;;;12.20;6.90;;;;;;;5.69;82.76;101027.25;5115726;28;20212;-70
2023/01/10 02:20:32;;;;;;;19.23;5.27;;;;;;;5.70;82.21;101028.97;5115918;28;20213;-70
2023/01/10 02:23:20;;;;;;;12.93;5.53;;;;;;;5.59;82.46;101034.78;5116029;28;20209;-70
2023/01/10 02:26:05;;;;;;;15.73;7.17;;;;;;;5.54;82.67;101021.69;5115718;28;20235;-71
2023/01/10 02:29:20;;;;;;;18.80;6.10;;;;;;;5.56;82.87;101026.09;5115850;28;20209;-71
2023/01/10 02:32:23;;;;;;;7.03;4.57;;;;;;;5.53;82.35;101027.06;5094257;28;20275;-71
2023/01/10 02:35:36;;;;;;;10.37;4.93;;;;;;;5.49;82.42;101031.69;5115458;28;20190;-71
2023/01/10 02:38:26;;;;;;;8.23;5.70;;;;;;;5.45;82.28;101031.88;5115416;28;20235;-70
2023/01/10 02:41:26;;;;;;;17.73;6.63;;;;;;;5.43;82.35;101029.28;5115918;28;20256;-71
2023/01/10 02:44:03;;;;;;;18.40;5.63;;;;;;;5.42;82.11;101029.38;5115605;28;20169;-71
2023/01/10 02:46:31;;;;;;;19.10;5.67;;;;;;;5.37;82.28;101037.56;5115202;28;20190;-71
2023/01/10 02:48:57;;;;;;;7.10;5.07;;;;;;;5.36;82.39;101040.28;5115439;28;20671;-71
2023/01/10 02:51:26;;;;;;;6.83;5.07;;;;;;;5.39;82.29;101040.13;5115599;28;20232;-71
2023/01/10 02:54:07;;;;;;;7.20;5.10;;;;;;;5.48;82.50;101045.03;5115577;28;20185;-71
2023/01/10 02:56:55;;;;;;;6.77;5.53;;;;;;;5.49;82.11;101041.44;5115469;28;20259;-71
2023/01/10 02:59:36;;;;;;;16.33;5.83;;;;;;;5.52;81.48;101047.47;5115025;28;20252;-71
2023/01/10 03:02:48;;;;;;;12.07;6.03;;;;;;;5.48;81.49;101042.38;5114932;28;20631;-71
2023/01/10 03:05:37;;;;;;;17.83;6.83;;;;;;;5.50;81.64;101049.34;5115517;28;20500;-71
2023/01/10 03:08:34;;;;;;;15.07;5.93;;;;;;;5.53;81.11;101057.19;5115224;28;20221;-71
2023/01/10 03:11:04;;;;;;;12.93;5.87;;;;;;;5.58;81.56;101067.59;5114673;28;20247;-71
2023/01/10 03:13:47;;;;;;;9.13;4.90;;;;;;;5.50;80.81;101072.38;5114660;28;20267;-71
2023/01/10 03:16:22;;;;;;;8.30;5.80;;;;;;;5.55;80.91;101075.69;5115164;28;20634;-71
2023/01/10 03:18:57;;;;;;;12.73;6.30;;;;;;;5.43;81.30;101076.25;5114624;28;20169;-71
2023/01/10 03:21:25;;;;;;;13.97;5.43;;;;;;;5.42;81.52;101085.16;5114614;28;20208;-71
2023/01/10 03:23:55;;;;;;;12.80;5.60;;;;;;;5.42;81.80;101096.63;5115006;28;20268;-71
2023/01/10 03:26:54;;;;;;;10.50;6.60;;;;;;;5.36;82.04;101096.03;5114437;28;20601;-70
2023/01/10 03:29:28;;;;;;;12.77;6.10;;;;;;;5.42;81.57;101098.44;5073997;28;20201;-71
2023/01/10 03:31:59;;;;;;;18.13;6.00;;;;;;;5.40;81.81;101100.28;5114605;28;20614;-71
2023/01/10 03:34:26;;;;;;;8.03;6.37;;;;;;;5.37;81.92;101116.38;5114916;28;20201;-71
2023/01/10 03:37:09;;;;;;;20.03;5.73;;;;;;;5.34;82.17;101120.03;5114472;28;20209;-71
2023/01/10 03:40:07;;;;;;;13.80;5.53;;;;;;;5.28;82.10;101121.13;5114543;28;20256;-71
2023/01/10 03:45:43;;;;;;;19.30;6.53;;;;;;;5.22;81.89;101123.19;5114195;28;20209;-71
2023/01/10 03:48:13;;;;;;;18.13;7.07;;;;;;;5.17;82.21;101130.50;5114396;28;20220;-70
2023/01/10 03:50:41;;;;;;;13.00;6.53;;;;;;;5.16;81.55;101119.03;5114024;28;20232;-71
2023/01/10 03:53:11;;;;;;;7.90;6.50;;;;;;;5.06;81.94;101123.88;5114031;28;20268;-71
2023/01/10 03:55:40;;;;;;;9.87;5.60;;;;;;;5.03;81.83;101131.97;5114550;28;20679;-71
2023/01/10 03:58:07;;;;;;;9.50;6.10;;;;;;;4.98;82.14;101135.72;5113928;28;20635;-71
2023/01/10 04:00:33;;;;;;;10.60;5.77;;;;;;;4.89;82.46;101139.63;5114470;28;20204;-71
2023/01/10 04:03:00;;;;;;;13.40;6.50;;;;;;;4.90;82.11;101141.34;5114167;28;20651;-71
2023/01/10 04:05:26;;;;;;;20.47;6.47;;;;;;;4.88;82.21;101137.91;5114179;28;20260;-71
2023/01/10 04:07:53;;;;;;;10.93;5.60;;;;;;;4.88;82.35;101145.84;5113694;28;20766;-71
2023/01/10 04:10:20;;;;;;;17.33;5.77;;;;;;;4.78;82.68;101148.03;5113999;28;20211;-71
2023/01/10 04:12:46;;;;;;;11.97;5.93;;;;;;;4.78;82.63;101155.97;5113752;28;20188;-71
2023/01/10 04:15:12;;;;;;;10.33;5.80;;;;;;;4.77;82.71;101161.38;5114281;28;20275;-71
2023/01/10 04:17:39;;;;;;;8.93;5.97;;;;;;;4.81;82.31;101163.84;5113621;28;20209;-71
2023/01/10 04:20:06;;;;;;;22.03;6.33;;;;;;;4.74;82.99;101167.66;5113764;28;20594;-71
2023/01/10 04:22:32;;;;;;;16.20;5.80;;;;;;;4.75;82.53;101163.22;5114227;28;20204;-71
2023/01/10 04:24:58;;;;;;;10.63;6.00;;;;;;;4.71;82.59;101167.78;5113689;28;20218;-71
2023/01/10 04:27:25;;;;;;;10.07;5.67;;;;;;;4.72;82.76;101168.63;5113858;28;20239;-70
2023/01/10 04:29:52;;;;;;;11.27;5.57;;;;;;;4.64;82.83;101171.59;5114191;28;20251;-71
2023/01/10 04:32:18;;;;;;;21.97;6.30;;;;;;;4.62;83.40;101171.69;5114126;28;20669;-71
2023/01/10 04:34:44;;;;;;;18.10;5.80;;;;;;;4.61;82.88;101169.06;5114097;28;20226;-71
2023/01/10 04:37:11;;;;;;;6.33;5.50;;;;;;;4.58;83.05;101178.03;5113778;28;20250;-70
2023/01/10 04:39:37;;;;;;;6.67;5.37;;;;;;;4.59;83.46;101176.22;5113499;28;20184;-71
2023/01/10 04:42:04;;;;;;;19.10;6.00;;;;;;;4.61;83.18;101175.25;5113815;28;20596;-71
2023/01/10 04:44:30;;;;;;;13.63;5.83;;;;;;;4.56;84.16;101171.91;5113462;28;20537;-71
2023/01/10 04:46:57;;;;;;;13.10;5.77;;;;;;;4.56;83.04;101173.69;5113287;28;20212;-71
2023/01/10 04:49:23;;;;;;;19.07;5.83;;;;;;;4.53;83.18;101172.03;5113632;28;20276;-71
2023/01/10 04:51:50;;;;;;;14.87;5.77;;;;;;;4.53;83.42;101180.00;5113938;28;20268;-70
2023/01/10 04:54:22;;;;;;;12.53;5.47;;;;;;;4.62;83.34;101181.41;5113328;28;20719;-71
2023/01/10 04:56:49;;;;;;;13.17;5.47;;;;;;;4.59;83.19;101176.22;5113498;28;20718;-70
2023/01/10 04:59:16;;;;;;;20.87;6.30;;;;;;;4.65;83.26;101183.97;5113843;28;20264;-70
2023/01/10 05:01:42;;;;;;;32.40;6.07;;;;;;;4.66;83.13;101183.88;5113570;28;20594;-70
2023/01/10 05:04:09;;;;;;;19.73;5.40;;;;;;;4.71;83.03;101196.97;5113216;28;20238;-71
2023/01/10 05:06:38;;;;;;;14.43;5.43;;;;;;;4.75;82.50;101198.56;5113434;28;20570;-70
2023/01/10 05:09:06;;;;;;;12.27;5.90;;;;;;;4.71;82.40;101204.06;5113765;28;20596;-70
2023/01/10 05:11:33;;;;;;;17.73;6.43;;;;;;;4.71;82.59;101199.59;5113389;28;20213;-71
2023/01/10 05:13:59;;;;;;;5.90;5.30;;;;;;;4.71;82.76;101206.72;5113124;28;20185;-71
2023/01/10 05:16:27;;;;;;;20.47;5.83;;;;;;;4.69;82.79;101205.00;5113048;28;20671;-70
2023/01/10 05:18:53;;;;;;;13.07;5.87;;;;;;;4.69;82.85;101202.34;5113112;28;20204;-71
2023/01/10 05:21:20;;;;;;;14.03;6.17;;;;;;;4.69;83.23;101215.59;5112988;28;20246;-71
2023/01/10 05:23:46;;;;;;;12.70;5.67;;;;;;;4.66;82.74;101225.47;5113092;28;20589;-71
2023/01/10 05:26:15;;;;;;;15.07;5.30;;;;;;;4.66;82.68;101225.47;5113227;28;20212;-71
2023/01/10 05:28:42;;;;;;;7.97;5.70;;;;;;;4.68;82.78;101232.44;5113590;28;20362;-71
2023/01/10 05:31:12;;;;;;;12.93;5.93;;;;;;;4.68;82.65;101235.09;5116640;28;20208;-71
2023/01/10 05:33:42;;;;;;;7.10;5.30;;;;;;;4.68;83.30;101239.53;5117258;28;20228;-71
2023/01/10 05:36:08;;;;;;;12.17;5.67;;;;;;;4.63;83.03;101245.00;5117167;28;20565;-71
2023/01/10 05:38:35;;;;;;;15.83;6.63;;;;;;;4.69;83.39;101247.44;5116482;28;20276;-70
2023/01/10 05:41:01;;;;;;;11.90;5.90;;;;;;;4.67;83.43;101251.94;5116540;28;20205;-71
2023/01/10 05:43:28;;;;;;;12.97;6.60;;;;;;;4.65;83.21;101248.47;5116469;28;20185;-71
2023/01/10 05:45:54;;;;;;;18.50;6.83;;;;;;;4.63;83.61;101257.41;5116724;28;20220;-71
2023/01/10 05:48:21;;;;;;;8.87;6.40;;;;;;;4.62;82.88;101255.66;5116338;28;20208;-70
2023/01/10 05:50:51;;;;;;;8.33;6.37;;;;;;;4.65;83.12;101268.84;5116858;28;20246;-71
2023/01/10 05:53:19;;;;;;;17.70;6.37;;;;;;;4.55;83.18;101263.03;5116356;28;20223;-71
2023/01/10 05:55:56;;;;;;;19.97;6.30;;;;;;;4.51;83.48;101269.38;5116870;28;20276;-71
2023/01/10 05:58:23;;;;;;;9.50;5.13;;;;;;;4.58;83.19;101273.50;5097795;28;20702;-70
2023/01/10 06:00:50;;;;;;;17.33;5.70;;;;;;;4.56;83.41;101261.22;5116126;28;20223;-71
2023/01/10 06:03:16;;;;;;;16.67;5.57;;;;;;;4.56;83.69;101272.69;5116121;28;20188;-71
2023/01/10 06:05:43;;;;;;;10.00;5.47;;;;;;;4.53;83.63;101267.53;5116331;28;20201;-71
2023/01/10 06:08:10;;;;;;;11.40;5.87;;;;;;;4.50;83.60;101274.72;5115928;28;20695;-70
2023/01/10 06:10:37;;;;;;;13.53;5.67;;;;;;;4.55;83.49;101278.94;5116463;28;20647;-70
2023/01/10 06:13:04;;;;;;;13.50;5.97;;;;;;;4.51;83.07;101276.47;5115842;28;20722;-70
2023/01/10 06:15:35;;;;;;;14.67;6.37;;;;;;;4.41;83.24;101271.50;5116364;28;20239;-71
2023/01/10 06:18:01;;;;;;;14.60;4.57;;;;;;;4.34;83.20;101277.09;5097525;28;20228;-71
2023/01/10 06:20:27;;;;;;;12.30;5.60;;;;;;;4.26;84.00;101298.56;5116090;28;20197;-71
2023/01/10 06:22:54;;;;;;;8.93;4.93;;;;;;;4.20;84.10;101306.75;5115950;28;20242;-71
2023/01/10 06:25:20;;;;;;;7.00;4.47;;;;;;;4.40;84.03;101308.66;5115934;28;20217;-71
2023/01/10 06:27:47;;;;;;;11.80;5.40;;;;;;;4.47;83.78;101311.03;5115469;28;20291;-70
2023/01/10 06:30:14;;;;;;;11.53;5.27;;;;;;;4.58;83.92;101323.91;5115559;28;20666;-70
2023/01/10 06:32:41;;;;;;;16.90;5.30;;;;;;;4.58;83.71;101325.69;5115357;28;20279;-70
2023/01/10 06:35:08;;;;;;;10.43;4.97;;;;;;;4.57;83.91;101316.00;5115463;28;20216;-71
2023/01/10 06:37:34;;;;;;;8.40;5.47;;;;;;;4.55;83.56;101326.69;5115597;28;20299;-70
2023/01/10 06:40:01;;;;;;;13.50;5.60;;;;;;;4.54;83.57;101326.72;5115055;28;20365;-70
2023/01/10 06:42:27;;;;;;;18.30;6.20;;;;;;;4.56;83.60;101322.25;5114673;28;20632;-70
2023/01/10 06:44:54;;;;;;;13.30;6.47;;;;;;;4.53;83.80;101336.47;5115243;28;20173;-70
2023/01/10 06:47:20;;;;;;;16.17;5.97;;;;;;;4.53;83.67;101335.63;5115163;28;20300;-70
2023/01/10 06:49:47;;;;;;;30.23;6.70;;;;;;;4.50;83.54;101341.88;5115161;28;20558;-70
2023/01/10 06:52:13;;;;;;;10.13;5.43;;;;;;;4.52;83.79;101348.00;5115011;28;20304;-70
2023/01/10 06:54:40;;;;;;;12.40;5.27;;;;;;;4.51;83.99;101353.38;5115015;28;20193;-70
2023/01/10 06:57:07;;;;;;;18.70;7.03;;;;;;;4.57;83.38;101354.00;5115111;28;20224;-70
2023/01/10 06:59:33;;;;;;;19.53;6.63;;;;;;;4.60;83.88;101364.50;5114949;28;20268;-70
2023/01/10 07:02:00;;;;;;;13.00;6.90;;;;;;;4.59;83.58;101368.06;5114906;28;20211;-70
2023/01/10 07:04:27;;;;;;;21.53;5.87;;;;;;;4.57;83.85;101377.88;5114919;28;20209;-70
2023/01/10 07:06:53;;;;;;;19.20;5.73;;;;;;;4.60;84.11;101367.16;5114751;28;20237;-70
2023/01/10 07:09:19;;;;;;;12.93;6.00;;;;;;;4.63;83.54;101374.16;5115390;28;20280;-71
2023/01/10 07:11:46;;;;;;;26.87;6.90;;;;;;;4.69;83.11;101377.44;5115169;28;20634;-71
2023/01/10 07:14:12;;;;;;;20.50;6.60;;;;;;;4.73;83.08;101378.19;5114716;28;20659;-71
2023/01/10 07:16:39;;;;;;;33.93;6.93;;;;;;;4.59;83.63;101378.69;5114590;28;20244;-70
2023/01/10 07:19:05;;;;;;;17.47;6.63;;;;;;;4.62;84.08;101386.53;5114903;28;20242;-70
2023/01/10 07:21:31;;;;;;;25.40;7.07;;;;;;;4.67;83.45;101387.25;5114620;28;20279;-70
2023/01/10 07:23:58;;;;;;;12.83;7.17;;;;;;;4.69;83.51;101395.13;5114551;28;20181;-70
2023/01/10 07:26:28;;;;;;;40.17;6.87;;;;;;;4.70;83.17;101391.56;5114410;28;20332;-70
2023/01/10 07:28:55;;;;;;;29.07;7.33;;;;;;;4.66;82.73;101395.25;5114779;28;20225;-70
2023/01/10 07:31:22;;;;;;;16.47;6.53;;;;;;;4.63;83.26;101395.38;5114390;28;20254;-70
2023/01/10 07:33:52;;;;;;;11.13;6.07;;;;;;;4.66;83.21;101401.41;5114284;28;20197;-70
2023/01/10 07:36:19;;;;;;;28.73;7.63;;;;;;;4.66;83.66;101396.09;5114561;28;20588;-70
2023/01/10 07:38:45;;;;;;;17.37;7.00;;;;;;;4.67;82.89;101405.81;5114226;28;20706;-70
2023/01/10 07:41:12;;;;;;;23.27;8.13;;;;;;;4.71;83.18;101405.69;5114165;28;20598;-71
2023/01/10 07:43:38;;;;;;;18.73;7.20;;;;;;;4.73;82.92;101406.50;5114209;28;20224;-71
2023/01/10 07:46:08;;;;;;;28.37;7.93;;;;;;;4.71;83.24;101416.31;5114114;28;20275;-71
2023/01/10 07:48:35;;;;;;;27.37;8.20;;;;;;;4.66;83.14;101412.03;5113940;28;20205;-70
2023/01/10 07:51:02;;;;;;;17.07;8.00;;;;;;;4.68;82.84;101415.47;5113995;28;20546;-70
2023/01/10 07:53:29;;;;;;;25.60;9.20;;;;;;;4.70;83.07;101423.41;5113571;28;20220;-70
2023/01/10 07:56:03;;;;;;;15.97;7.23;;;;;;;4.78;83.34;101425.78;5114009;28;20209;-70
2023/01/10 07:58:29;;;;;;;17.80;8.23;;;;;;;4.80;82.63;101431.91;5113914;28;20238;-70
2023/01/10 08:01:00;;;;;;;24.50;9.97;;;;;;;4.81;82.50;101439.81;5113829;28;20216;-70
2023/01/10 08:03:28;;;;;;;27.33;11.30;;;;;;;4.85;82.90;101438.75;5114183;28;20169;-70
2023/01/10 08:06:04;;;;;;;33.83;10.90;;;;;;;4.86;83.03;101439.59;5114384;28;20197;-70
2023/01/10 08:08:31;;;;;;;24.40;11.43;;;;;;;4.90;82.98;101449.19;5114047;28;20291;-70
2023/01/10 08:10:58;;;;;;;34.30;11.20;;;;;;;4.86;82.65;101445.81;5113751;28;20223;-70
2023/01/10 08:13:25;;;;;;;34.20;11.63;;;;;;;4.89;82.36;101455.44;5113934;28;20213;-70
2023/01/10 08:15:51;;;;;;;22.10;10.37;;;;;;;4.85;82.27;101464.44;5114277;28;20220;-70
2023/01/10 08:18:20;;;;;;;42.33;12.00;;;;;;;4.82;82.68;101453.94;5113622;28;20229;-71
2023/01/10 08:20:51;;;;;;;32.07;13.00;;;;;;;4.85;83.02;101461.78;5113523;28;20221;-71
2023/01/10 08:23:18;;;;;;;23.40;12.27;;;;;;;4.84;83.46;101463.56;5113879;28;20259;-71
2023/01/10 08:25:45;;;;;;;43.83;13.90;;;;;;;4.93;82.92;101461.50;5113589;28;20209;-71
2023/01/10 08:28:13;;;;;;;39.80;14.43;;;;;;;5.01;82.83;101465.59;5113780;28;20686;-71
2023/01/10 08:30:39;;;;;;;40.33;14.57;;;;;;;4.96;83.11;101464.06;5113568;28;20219;-71
2023/01/10 08:33:08;;;;;;;57.60;16.37;;;;;;;5.06;82.80;101470.75;5113664;28;20681;-71
2023/01/10 08:35:42;;;;;;;42.87;17.43;;;;;;;5.12;82.38;101475.81;5113527;28;20220;-71
2023/01/10 08:38:10;;;;;;;55.33;19.00;;;;;;;5.11;82.34;101474.97;5113499;28;20248;-70
2023/01/10 08:40:36;;;;;;;50.80;19.13;;;;;;;5.10;82.29;101481.19;5113758;28;20268;-70
2023/01/10 08:43:06;;;;;;;63.50;19.27;;;;;;;5.16;82.43;101485.41;5113665;28;20202;-70
2023/01/10 08:45:34;;;;;;;47.93;17.30;;;;;;;5.16;82.00;101482.75;5113395;28;20284;-70
2023/01/10 08:48:01;;;;;;;37.30;15.10;;;;;;;5.21;81.77;101475.47;5113851;28;20205;-71
2023/01/10 08:50:29;;;;;;;43.30;13.07;;;;;;;5.21;81.81;101488.75;5113441;28;20197;-71
2023/01/10 08:52:59;;;;;;;26.97;9.77;;;;;;;5.21;81.79;101480.78;5113659;28;20630;-71
2023/01/10 08:55:27;;;;;;;26.13;9.77;;;;;;;5.19;81.93;101485.28;5113751;28;20674;-71
2023/01/10 08:57:54;;;;;;;32.20;8.43;;;;;;;5.23;81.71;101488.72;5113390;28;20236;-70
2023/01/10 09:00:20;;;;;;;15.33;8.17;;;;;;;5.29;81.40;101483.16;5113343;28;20620;-70
2023/01/10 09:02:47;;;;;;;25.03;7.77;;;;;;;5.31;81.08;101476.84;5113555;28;20185;-70
2023/01/10 09:05:14;;;;;;;24.77;8.10;;;;;;;5.35;81.08;101480.28;5115734;28;20208;-70
2023/01/10 09:07:56;;;;;;;26.17;7.20;;;;;;;5.38;81.32;101487.25;5117432;28;20612;-70
2023/01/10 09:10:22;;;;;;;26.23;7.47;;;;;;;5.47;80.81;101490.44;5117398;28;20214;-70
2023/01/10 09:12:54;;;;;;;27.57;8.47;;;;;;;5.56;80.96;101488.38;5116944;28;20205;-70
2023/01/10 09:15:23;;;;;;;30.13;7.77;;;;;;;5.65;80.10;101482.66;5117016;28;20222;-70
2023/01/10 09:17:53;;;;;;;40.43;8.23;;;;;;;5.67;79.93;101494.97;5116926;28;20244;-70
2023/01/10 09:20:19;;;;;;;23.90;7.13;;;;;;;5.60;80.02;101487.31;5116979;28;20193;-71
2023/01/10 09:22:46;;;;;;;26.83;6.90;;;;;;;5.61;79.85;101491.72;5116860;28;20165;-71
2023/01/10 09:25:12;;;;;;;27.73;7.13;;;;;;;5.56;79.85;101496.34;5117451;28;20197;-71
2023/01/10 09:27:39;;;;;;;29.70;8.07;;;;;;;5.47;80.07;101489.56;5117263;28;20221;-71
2023/01/10 09:30:06;;;;;;;31.80;7.80;;;;;;;5.42;80.22;101495.06;5116695;28;20217;-71
2023/01/10 09:32:32;;;;;;;22.53;7.13;;;;;;;5.46;80.68;101488.72;5116652;28;20624;-71
2023/01/10 09:34:59;;;;;;;22.97;7.40;;;;;;;5.61;79.80;101494.38;5116677;28;20231;-71
2023/01/10 09:37:25;;;;;;;20.17;6.87;;;;;;;5.75;79.77;101497.34;5116570;28;20238;-71
2023/01/10 09:39:52;;;;;;;19.90;7.27;;;;;;;5.75;79.58;101500.00;5116583;28;20220;-71
2023/01/10 09:42:48;;;;;;;20.30;6.77;;;;;;;5.74;79.11;101501.78;5116555;28;20591;-71
2023/01/10 09:46:13;;;;;;;18.70;5.63;;;;;;;5.86;79.35;101500.44;5116472;28;20220;-71
2023/01/10 09:48:59;;;;;;;31.07;6.83;;;;;;;5.91;78.63;101506.44;5014343;28;20604;-71
2023/01/10 09:51:37;;;;;;;21.77;6.37;;;;;;;5.94;78.58;101511.66;5116980;28;20165;-71
2023/01/10 09:54:42;;;;;;;26.73;6.80;;;;;;;6.01;78.40;101503.44;5116597;28;20260;-71
2023/01/10 09:57:20;;;;;;;27.60;5.77;;;;;;;5.99;78.28;101511.50;5013920;28;20676;-71
2023/01/10 09:59:50;;;;;;;18.47;6.63;;;;;;;5.92;77.96;101502.84;5014076;28;20209;-71
2023/01/10 10:02:22;;;;;;;24.90;6.13;;;;;;;5.97;78.08;101502.72;5072949;28;20240;-71
2023/01/10 10:04:58;;;;;;;21.43;6.00;;;;;;;5.92;77.91;101499.34;5116671;28;20184;-71
2023/01/10 10:07:24;;;;;;;21.20;5.03;;;;;;;5.96;77.68;101500.94;5115974;28;20236;-71
2023/01/10 10:09:50;;;;;;;29.23;5.83;;;;;;;6.03;78.10;101504.25;5116010;28;20188;-71
2023/01/10 10:12:56;;;;;;;13.40;5.20;;;;;;;6.09;78.18;101504.00;5116143;28;20244;-71
2023/01/10 10:15:32;;;;;;;18.87;6.03;;;;;;;6.11;77.26;101494.19;5115868;28;20209;-71
2023/01/10 10:18:01;;;;;;;20.23;6.07;;;;;;;6.19;77.47;101494.72;5116093;28;20296;-70
2023/01/10 10:20:42;;;;;;;10.87;5.33;;;;;;;6.19;76.63;101500.03;5115785;28;20239;-70
2023/01/10 10:23:27;;;;;;;18.60;4.83;;;;;;;6.22;76.90;101491.06;5116039;28;20169;-70
2023/01/10 10:26:18;;;;;;;17.50;5.50;;;;;;;6.30;77.10;101497.81;5116306;28;20193;-70
2023/01/10 10:28:56;;;;;;;21.47;5.43;;;;;;;6.24;76.36;101495.38;5116088;28;20216;-71
2023/01/10 10:31:37;;;;;;;17.17;4.10;;;;;;;6.41;76.39;101500.00;5115586;28;20181;-71
2023/01/10 10:34:32;;;;;;;12.20;4.87;;;;;;;6.47;76.65;101494.44;5116008;28;20680;-71
2023/01/10 10:37:08;;;;;;;19.90;5.37;;;;;;;6.52;76.06;101500.44;5115360;28;20209;-70
2023/01/10 10:39:44;;;;;;;21.67;5.27;;;;;;;6.50;75.73;101499.63;5115466;28;20205;-70
2023/01/10 10:42:14;;;;;;;11.60;5.23;;;;;;;6.49;75.79;101499.66;5115933;28;20173;-70
2023/01/10 10:44:46;;;;;;;14.93;4.60;;;;;;;6.57;75.82;101495.78;5115861;28;20646;-71
2023/01/10 10:47:16;;;;;;;20.67;5.17;;;;;;;6.59;75.67;101503.69;5115471;28;20635;-70
2023/01/10 10:49:55;;;;;;;26.47;4.47;;;;;;;6.52;75.10;101499.56;5115174;28;20224;-70
2023/01/10 10:52:33;;;;;;;27.37;4.63;;;;;;;6.57;75.36;101489.59;5097709;28;20280;-70
2023/01/10 10:55:01;;;;;;;20.43;5.00;;;;;;;6.56;76.04;101483.41;5115138;28;20230;-71
2023/01/10 10:57:30;;;;;;;18.80;5.90;;;;;;;6.58;75.80;101476.22;5115275;28;20247;-70
2023/01/10 10:59:58;;;;;;;28.23;4.40;;;;;;;6.62;75.05;101473.41;5115538;28;20237;-70
2023/01/10 11:02:28;;;;;;;19.07;3.53;;;;;;;6.67;74.98;101461.63;5115699;28;20647;-70
2023/01/10 11:05:01;;;;;;;6.53;5.17;;;;;;;6.68;74.66;101470.47;5115125;28;20193;-71
2023/01/10 11:07:33;;;;;;;15.93;4.47;;;;;;;6.71;74.80;101470.38;5115114;28;20209;-71
2023/01/10 11:12:37;;;;;;;15.63;4.53;;;;;;;6.68;74.22;101458.06;5115263;28;20308;-71
2023/01/10 11:15:04;;;;;;;19.47;4.67;;;;;;;6.69;74.19;101467.75;5114710;28;20180;-70
2023/01/10 11:17:32;;;;;;;15.00;4.00;;;;;;;6.70;74.59;101463.28;5114781;28;20283;-71
2023/01/10 11:20:12;;;;;;;10.23;3.77;;;;;;;6.56;73.85;101458.56;5114919;28;20212;-71
2023/01/10 11:22:45;;;;;;;15.03;4.30;;;;;;;6.64;74.18;101456.44;5114888;28;20252;-71
2023/01/10 11:25:15;;;;;;;19.20;3.93;;;;;;;6.59;73.85;101459.31;5115171;28;20575;-71
2023/01/10 11:27:48;;;;;;;29.50;4.57;;;;;;;6.66;74.50;101459.06;5114391;28;20689;-70
2023/01/10 11:30:25;;;;;;;15.47;4.20;;;;;;;6.76;74.42;101444.41;5114506;28;20265;-70
2023/01/10 11:32:55;;;;;;;24.57;3.83;;;;;;;6.71;73.39;101433.97;5114615;28;20288;-70
2023/01/10 11:35:29;;;;;;;16.43;3.70;;;;;;;6.82;74.52;101442.34;5114942;28;20264;-70
2023/01/10 11:38:05;;;;;;;20.50;5.60;;;;;;;6.87;73.64;101438.59;5114356;28;20247;-70
2023/01/10 11:40:35;;;;;;;17.67;4.30;;;;;;;6.88;73.63;101441.19;5114841;28;20165;-70
2023/01/10 11:43:25;;;;;;;11.13;3.30;;;;;;;6.95;74.03;101445.31;5114206;28;20268;-70
2023/01/10 11:46:01;;;;;;;14.33;4.40;;;;;;;6.93;73.60;101433.84;5114199;28;20197;-70
2023/01/10 11:48:41;;;;;;;18.10;3.60;;;;;;;7.12;72.74;101433.03;5114133;28;20254;-71
2023/01/10 11:51:42;;;;;;;11.40;4.07;;;;;;;7.03;73.07;101434.31;5114113;28;20182;-70